Time;durP1;ratioP1;P1;durP2;ratioP2;P2;SDS_P1;SDS_P2;PMS_P1;PMS_P2;Temp;Humidity;BMP_temperature;BMP_pressure;BME280_temperature;BME280_humidity;BME280_pressure;Samples;Min_cycle;Max_cycle;Signal;HPM_P1;HPM_P2
2023/08/19 00:00:50;;;;;;;5.32;4.57;;;24.90;99.90;;;;;;4159148;28;20089;-69
2023/08/19 00:02:57;;;;;;;5.75;4.53;;;24.90;99.90;;;;;;4160430;28;20429;-66
2023/08/19 00:04:58;;;;;;;7.03;4.65;;;24.90;99.90;;;;;;4158794;28;20033;-66
2023/08/19 00:06:59;;;;;;;6.35;5.00;;;24.90;99.90;;;;;;4158070;28;20095;-66
2023/08/19 00:09:04;;;;;;;6.85;4.78;;;24.90;99.90;;;;;;4161147;28;20041;-66
2023/08/19 00:11:05;;;;;;;6.38;4.57;;;24.90;99.90;;;;;;4157710;28;20099;-66
2023/08/19 00:13:06;;;;;;;5.53;4.57;;;24.90;99.90;;;;;;4161627;28;20025;-67
2023/08/19 00:15:07;;;;;;;5.20;4.32;;;24.90;99.90;;;;;;4162231;28;20032;-67
2023/08/19 00:17:08;;;;;;;5.22;4.03;;;24.90;99.90;;;;;;4160778;28;20042;-66
2023/08/19 00:19:09;;;;;;;6.45;4.30;;;24.90;99.90;;;;;;4162963;28;20160;-66
2023/08/19 00:21:09;;;;;;;5.32;4.50;;;24.90;99.90;;;;;;4160622;28;20034;-66
2023/08/19 00:23:10;;;;;;;4.88;4.35;;;24.90;99.90;;;;;;4157845;28;20497;-67
2023/08/19 00:25:11;;;;;;;7.05;5.25;;;24.90;99.90;;;;;;4158042;28;20133;-66
2023/08/19 00:27:13;;;;;;;6.03;4.75;;;24.90;99.90;;;;;;4159703;28;20406;-66
2023/08/19 00:29:14;;;;;;;7.10;4.45;;;24.90;99.90;;;;;;4160024;28;20537;-66
2023/08/19 00:31:14;;;;;;;5.82;4.45;;;24.90;99.90;;;;;;4156790;28;20033;-66
2023/08/19 00:33:15;;;;;;;5.43;4.63;;;24.90;99.90;;;;;;4158809;28;20068;-66
2023/08/19 00:35:16;;;;;;;6.40;5.07;;;24.90;99.90;;;;;;4159275;28;20033;-66
2023/08/19 00:37:17;;;;;;;5.75;4.40;;;24.80;99.90;;;;;;4159562;28;20069;-66
2023/08/19 00:39:18;;;;;;;6.38;4.57;;;24.80;99.90;;;;;;4159814;28;20366;-66
2023/08/19 00:41:20;;;;;;;7.20;4.25;;;24.80;99.90;;;;;;4159683;28;20032;-66
2023/08/19 00:43:21;;;;;;;5.38;3.95;;;24.80;99.90;;;;;;4162155;28;20035;-66
2023/08/19 00:45:22;;;;;;;6.95;4.45;;;24.80;99.90;;;;;;4155739;28;20659;-66
2023/08/19 00:47:24;;;;;;;6.18;4.63;;;24.70;99.90;;;;;;4157886;28;20030;-66
2023/08/19 00:49:25;;;;;;;;;;;24.70;99.90;;;;;;4161210;28;20037;-66
2023/08/19 00:51:26;;;;;;;4.63;3.95;;;24.70;99.90;;;;;;4163140;28;19958;-66
2023/08/19 00:53:26;;;;;;;5.95;4.10;;;24.70;99.90;;;;;;4162345;28;20037;-66
2023/08/19 00:55:27;;;;;;;4.90;3.88;;;24.70;99.90;;;;;;4160364;28;20037;-66
2023/08/19 00:57:28;;;;;;;7.63;4.03;;;24.70;99.90;;;;;;4164039;28;20120;-66
2023/08/19 00:59:28;;;;;;;5.93;4.05;;;24.70;99.90;;;;;;4172966;28;20581;-66
2023/08/19 01:01:29;;;;;;;5.85;4.70;;;24.70;99.90;;;;;;4161079;28;20099;-66
2023/08/19 01:03:30;;;;;;;5.40;4.07;;;24.70;99.90;;;;;;4157325;28;20049;-72
2023/08/19 01:06:10;;;;;;;4.82;3.95;;;24.70;99.90;;;;;;4159066;28;20049;-63
2023/08/19 01:08:17;;;;;;;6.88;4.60;;;24.60;99.90;;;;;;4114682;28;20041;-67
2023/08/19 01:10:34;;;;;;;4.80;4.10;;;24.60;99.90;;;;;;4161247;28;20088;-63
2023/08/19 01:13:13;;;;;;;4.70;4.10;;;24.60;99.90;;;;;;4163126;28;20398;-63
2023/08/19 01:15:16;;;;;;;5.30;3.85;;;24.60;99.90;;;;;;4158265;28;20041;-63
2023/08/19 01:17:23;;;;;;;7.10;3.60;;;24.50;99.90;;;;;;4159342;28;20477;-63
2023/08/19 01:19:31;;;;;;;4.95;3.92;;;24.50;99.90;;;;;;4159068;28;20025;-63
2023/08/19 01:21:33;;;;;;;5.20;3.75;;;24.50;99.90;;;;;;4159598;28;20378;-63
2023/08/19 01:23:40;;;;;;;4.82;4.00;;;24.50;99.90;;;;;;4161541;28;20112;-63
2023/08/19 01:25:42;;;;;;;5.88;4.45;;;24.50;99.90;;;;;;4155254;28;20029;-65
2023/08/19 01:27:43;;;;;;;6.45;4.15;;;24.50;99.90;;;;;;4160508;28;20080;-63
2023/08/19 01:29:43;;;;;;;5.43;4.40;;;24.50;99.90;;;;;;4162106;28;20432;-63
2023/08/19 01:31:44;;;;;;;4.25;3.45;;;24.50;99.90;;;;;;4161523;28;20029;-63
2023/08/19 01:33:45;;;;;;;5.25;3.65;;;24.40;99.90;;;;;;4157641;28;20033;-63
2023/08/19 01:36:26;;;;;;;5.55;3.60;;;24.40;99.90;;;;;;4165009;28;20026;-63
2023/08/19 01:38:41;;;;;;;3.85;3.25;;;24.40;99.90;;;;;;4159456;28;20044;-63
2023/08/19 01:40:42;;;;;;;6.57;4.00;;;24.40;99.90;;;;;;4156452;28;20045;-63
2023/08/19 01:42:44;;;;;;;6.60;3.53;;;24.40;99.90;;;;;;4162063;28;20552;-63
2023/08/19 01:44:45;;;;;;;5.30;3.47;;;24.40;99.90;;;;;;4159768;28;20072;-63
2023/08/19 01:46:46;;;;;;;4.63;3.75;;;24.40;99.90;;;;;;4156085;28;20048;-63
2023/08/19 01:48:46;;;;;;;5.60;3.85;;;24.40;99.90;;;;;;4157527;28;20486;-63
2023/08/19 01:50:47;;;;;;;3.75;3.17;;;24.30;99.90;;;;;;4157515;28;20038;-63
2023/08/19 01:52:48;;;;;;;5.38;4.03;;;24.30;99.90;;;;;;4158739;28;20091;-63
2023/08/19 01:54:48;;;;;;;4.30;3.38;;;24.30;99.90;;;;;;4153733;28;20456;-63
2023/08/19 01:56:49;;;;;;;5.95;3.50;;;24.30;99.90;;;;;;4160339;28;20547;-63
2023/08/19 01:58:49;;;;;;;5.38;3.42;;;24.30;99.90;;;;;;4157884;28;20025;-63
2023/08/19 02:00:50;;;;;;;5.30;3.70;;;24.30;99.90;;;;;;4155595;28;20401;-63
2023/08/19 02:02:51;;;;;;;4.45;3.53;;;24.30;99.90;;;;;;4163671;28;20053;-63
2023/08/19 02:04:51;;;;;;;4.03;3.08;;;24.30;99.90;;;;;;4155659;28;20030;-63
2023/08/19 02:06:53;;;;;;;4.60;3.22;;;24.30;99.90;;;;;;4158210;28;20084;-63
2023/08/19 02:08:53;;;;;;;4.38;3.22;;;24.30;99.90;;;;;;4158954;28;20022;-62
2023/08/19 02:10:54;;;;;;;4.30;3.30;;;24.30;99.90;;;;;;4156607;28;20569;-63
2023/08/19 02:12:54;;;;;;;3.85;2.92;;;24.30;99.90;;;;;;4159510;28;20040;-63
2023/08/19 02:14:55;;;;;;;4.88;3.05;;;24.30;99.90;;;;;;4157782;28;20037;-62
2023/08/19 02:16:56;;;;;;;5.38;3.20;;;24.30;99.90;;;;;;4157789;28;20029;-63
2023/08/19 02:18:58;;;;;;;4.95;2.92;;;24.30;99.90;;;;;;4156776;28;20021;-67
2023/08/19 02:20:59;;;;;;;;;;;24.30;99.90;;;;;;4161072;28;20511;-67
2023/08/19 02:23:00;;;;;;;4.20;2.90;;;24.30;99.90;;;;;;4160553;28;19909;-68
2023/08/19 02:25:01;;;;;;;3.78;3.10;;;24.20;99.90;;;;;;4154714;28;20366;-67
2023/08/19 02:27:03;;;;;;;3.92;3.10;;;24.30;99.90;;;;;;4157766;28;20041;-68
2023/08/19 02:29:03;;;;;;;6.43;3.47;;;24.20;99.90;;;;;;4184224;28;20033;-68
2023/08/19 02:31:04;;;;;;;3.65;3.15;;;24.20;99.90;;;;;;4157961;28;20080;-68
2023/08/19 02:33:08;;;;;;;5.45;3.58;;;24.20;99.90;;;;;;4159093;28;20033;-68
2023/08/19 02:35:10;;;;;;;4.28;3.28;;;24.10;99.90;;;;;;4159229;28;20044;-67
2023/08/19 02:37:13;;;;;;;6.93;4.10;;;24.10;99.90;;;;;;4160809;28;20426;-68
2023/08/19 02:39:14;;;;;;;4.88;3.25;;;24.10;99.90;;;;;;4157782;28;20035;-67
2023/08/19 02:41:14;;;;;;;4.95;3.15;;;24.10;99.90;;;;;;4158527;28;20060;-67
2023/08/19 02:43:16;;;;;;;3.90;3.20;;;24.00;99.90;;;;;;4161123;28;20033;-67
2023/08/19 02:45:16;;;;;;;5.47;3.50;;;24.10;99.90;;;;;;4159614;28;20026;-68
2023/08/19 02:47:17;;;;;;;7.28;3.45;;;24.10;99.90;;;;;;4159922;28;20041;-68
2023/08/19 02:49:17;;;;;;;4.93;3.50;;;24.10;99.90;;;;;;4157635;28;20038;-68
2023/08/19 02:51:18;;;;;;;6.32;3.53;;;24.00;99.90;;;;;;4156474;28;20034;-68
2023/08/19 02:53:19;;;;;;;5.72;3.33;;;24.00;99.90;;;;;;4159787;28;20033;-67
2023/08/19 02:55:19;;;;;;;6.18;3.80;;;24.00;99.90;;;;;;4160192;28;20081;-68
2023/08/19 02:57:21;;;;;;;5.25;2.92;;;24.00;99.90;;;;;;4161247;28;20033;-68
2023/08/19 02:59:21;;;;;;;5.38;3.20;;;23.90;99.90;;;;;;4161016;28;20091;-68
2023/08/19 03:01:23;;;;;;;5.18;3.10;;;24.00;99.90;;;;;;4159382;28;20037;-68
2023/08/19 03:03:23;;;;;;;6.35;3.10;;;23.90;99.90;;;;;;4157368;28;20037;-68
2023/08/19 03:05:24;;;;;;;6.10;3.60;;;23.90;99.90;;;;;;4156491;28;20164;-68
2023/08/19 03:07:24;;;;;;;5.55;3.20;;;24.00;99.90;;;;;;4161887;28;20022;-68
2023/08/19 03:09:25;;;;;;;6.47;3.83;;;23.90;99.90;;;;;;4157486;28;20060;-67
2023/08/19 03:11:26;;;;;;;5.85;3.50;;;23.90;99.90;;;;;;4158908;28;20448;-67
2023/08/19 03:13:26;;;;;;;4.78;3.08;;;23.90;99.90;;;;;;4158479;28;20125;-68
2023/08/19 03:15:27;;;;;;;8.50;3.38;;;23.90;99.90;;;;;;4156905;28;20033;-67
2023/08/19 03:17:27;;;;;;;4.03;2.80;;;23.90;99.90;;;;;;4150316;28;20034;-68
2023/08/19 03:19:28;;;;;;;5.80;3.25;;;23.90;99.90;;;;;;4159720;28;20514;-68
2023/08/19 03:21:29;;;;;;;4.53;3.08;;;23.90;99.90;;;;;;4157148;28;20037;-68
2023/08/19 03:23:29;;;;;;;5.35;2.90;;;23.90;99.90;;;;;;4160829;28;20432;-68
2023/08/19 03:25:30;;;;;;;5.95;3.15;;;23.90;99.90;;;;;;4158696;28;20038;-68
2023/08/19 03:27:31;;;;;;;4.82;2.92;;;23.90;99.90;;;;;;4159612;28;20108;-68
2023/08/19 03:29:32;;;;;;;6.43;3.35;;;23.90;99.90;;;;;;4158481;28;20499;-64
2023/08/19 03:31:32;;;;;;;4.82;3.15;;;23.90;99.90;;;;;;4159055;28;20060;-64
2023/08/19 03:33:33;;;;;;;8.13;2.75;;;23.90;99.90;;;;;;4151872;28;20054;-64
2023/08/19 03:35:34;;;;;;;6.55;3.13;;;23.90;99.90;;;;;;4157908;28;20161;-64
2023/08/19 03:37:35;;;;;;;6.53;3.35;;;23.90;99.90;;;;;;4156572;28;20042;-64
2023/08/19 03:39:35;;;;;;;6.35;3.42;;;23.90;99.90;;;;;;4156479;28;20428;-64
2023/08/19 03:41:36;;;;;;;6.32;2.95;;;23.90;99.90;;;;;;4159874;28;20092;-64
2023/08/19 03:43:36;;;;;;;4.85;2.90;;;23.90;99.90;;;;;;4160966;28;20053;-64
2023/08/19 03:45:37;;;;;;;5.07;3.33;;;23.90;99.90;;;;;;4162853;28;20155;-64
2023/08/19 03:47:38;;;;;;;5.25;3.03;;;23.90;99.90;;;;;;4160990;28;20378;-64
2023/08/19 03:49:39;;;;;;;5.40;3.08;;;23.90;99.90;;;;;;4168230;28;20116;-64
2023/08/19 03:51:39;;;;;;;6.30;3.28;;;23.90;99.90;;;;;;4162803;28;20062;-64
2023/08/19 03:53:40;;;;;;;4.40;2.88;;;23.90;99.90;;;;;;4159919;28;20042;-64
2023/08/19 03:55:41;;;;;;;6.43;3.13;;;23.90;99.90;;;;;;4161488;28;20040;-64
2023/08/19 03:57:41;;;;;;;4.63;2.97;;;23.90;99.90;;;;;;4161671;28;20103;-67
2023/08/19 03:59:42;;;;;;;7.78;3.20;;;23.90;99.90;;;;;;4161889;28;20030;-66
2023/08/19 04:01:42;;;;;;;3.15;2.85;;;23.90;99.90;;;;;;4162350;28;20041;-65
2023/08/19 04:03:43;;;;;;;6.40;3.50;;;23.90;99.90;;;;;;4167537;28;20453;-65
2023/08/19 04:05:43;;;;;;;5.47;2.90;;;23.90;99.90;;;;;;4157483;28;20041;-65
2023/08/19 04:07:44;;;;;;;7.50;3.15;;;23.80;99.90;;;;;;4160876;28;20045;-64
2023/08/19 04:09:45;;;;;;;5.97;2.97;;;23.80;99.90;;;;;;4162227;28;20501;-65
2023/08/19 04:11:49;;;;;;;6.07;3.25;;;23.90;99.90;;;;;;4162206;28;20500;-64
2023/08/19 04:13:50;;;;;;;8.68;3.15;;;23.80;99.90;;;;;;4164906;28;20065;-64
2023/08/19 04:15:51;;;;;;;3.70;2.67;;;23.80;99.90;;;;;;4161806;28;20037;-64
2023/08/19 04:17:51;;;;;;;3.50;2.70;;;23.90;99.90;;;;;;4160138;28;20030;-64
2023/08/19 04:19:52;;;;;;;4.70;3.05;;;23.90;99.90;;;;;;4160421;28;20030;-64
2023/08/19 04:21:53;;;;;;;5.80;3.40;;;23.90;99.90;;;;;;4159808;28;20488;-64
2023/08/19 04:23:53;;;;;;;6.03;3.17;;;23.90;99.90;;;;;;4163001;28;20068;-64
2023/08/19 04:25:57;;;;;;;5.55;2.80;;;23.90;99.90;;;;;;4160609;28;20037;-64
2023/08/19 04:27:57;;;;;;;5.45;2.63;;;23.90;99.90;;;;;;4159128;28;20034;-64
2023/08/19 04:29:58;;;;;;;6.60;3.00;;;23.90;99.90;;;;;;4161524;28;20040;-64
2023/08/19 04:32:03;;;;;;;5.55;2.78;;;23.90;99.90;;;;;;4162974;28;20045;-64
2023/08/19 04:34:04;;;;;;;4.28;2.75;;;23.90;99.90;;;;;;4160966;28;20041;-64
2023/08/19 04:36:05;;;;;;;6.13;2.95;;;23.90;99.90;;;;;;4159321;28;20087;-64
2023/08/19 04:38:08;;;;;;;5.60;2.85;;;23.90;99.90;;;;;;4160201;28;20436;-62
2023/08/19 04:40:09;;;;;;;7.07;3.40;;;23.90;99.90;;;;;;4159481;28;20063;-64
2023/08/19 04:42:10;;;;;;;4.47;2.75;;;23.90;99.90;;;;;;4162606;28;20386;-64
2023/08/19 04:44:11;;;;;;;4.95;2.85;;;23.90;99.90;;;;;;4164174;28;20032;-64
2023/08/19 04:46:12;;;;;;;5.13;2.53;;;23.90;99.90;;;;;;4160688;28;20390;-64
2023/08/19 04:48:14;;;;;;;7.15;3.17;;;23.90;99.90;;;;;;4160243;28;20026;-65
2023/08/19 04:50:14;;;;;;;4.78;2.60;;;23.90;99.90;;;;;;4161275;28;20128;-64
2023/08/19 04:52:15;;;;;;;4.80;2.83;;;23.90;99.90;;;;;;4160492;28;20412;-65
2023/08/19 04:54:16;;;;;;;3.85;2.92;;;23.90;99.90;;;;;;4163997;28;20037;-65
2023/08/19 04:56:16;;;;;;;3.38;2.50;;;23.90;99.90;;;;;;4156432;28;20504;-64
2023/08/19 04:58:17;;;;;;;2.75;2.20;;;24.00;99.90;;;;;;4161816;28;20374;-65
2023/08/19 05:00:18;;;;;;;3.75;2.80;;;23.90;99.90;;;;;;4159315;28;20038;-64
2023/08/19 05:02:18;;;;;;;4.15;2.72;;;24.00;99.90;;;;;;4160389;28;20398;-64
2023/08/19 05:04:19;;;;;;;6.38;2.42;;;23.90;99.90;;;;;;4161018;28;20036;-64
2023/08/19 05:06:20;;;;;;;7.30;2.58;;;23.90;99.90;;;;;;4155973;28;20056;-64
2023/08/19 05:08:21;;;;;;;6.40;2.75;;;24.00;99.90;;;;;;4160023;28;20040;-64
2023/08/19 05:10:22;;;;;;;5.43;2.67;;;24.00;99.90;;;;;;4158164;28;20038;-64
2023/08/19 05:12:25;;;;;;;4.43;2.80;;;24.00;99.90;;;;;;4156984;28;20038;-64
2023/08/19 05:14:26;;;;;;;6.97;2.63;;;24.00;99.90;;;;;;4159363;28;20464;-64
2023/08/19 05:16:26;;;;;;;4.25;2.67;;;24.00;99.90;;;;;;4159791;28;20038;-64
2023/08/19 05:18:27;;;;;;;3.83;2.45;;;24.00;99.90;;;;;;4158892;28;20398;-64
2023/08/19 05:20:28;;;;;;;6.25;2.92;;;24.10;99.90;;;;;;4158976;28;20035;-64
2023/08/19 05:22:29;;;;;;;6.32;2.83;;;24.10;99.90;;;;;;4157883;28;20052;-64
2023/08/19 05:24:29;;;;;;;5.13;2.80;;;24.10;99.90;;;;;;4158949;28;20075;-64
2023/08/19 05:26:30;;;;;;;6.63;2.85;;;24.10;99.90;;;;;;4158651;28;20045;-64
2023/08/19 05:28:31;;;;;;;5.60;2.80;;;24.10;99.90;;;;;;4161091;28;20026;-64
2023/08/19 05:30:32;;;;;;;4.40;2.80;;;24.10;99.90;;;;;;4156428;28;20515;-65
2023/08/19 05:32:33;;;;;;;5.60;2.78;;;24.10;99.90;;;;;;4154610;28;20057;-64
2023/08/19 05:34:33;;;;;;;6.22;2.85;;;24.20;99.90;;;;;;4157888;28;20492;-64
2023/08/19 05:36:34;;;;;;;7.13;2.75;;;24.20;99.90;;;;;;4148343;28;20065;-65
2023/08/19 05:38:35;;;;;;;5.18;2.70;;;24.10;99.90;;;;;;4156714;28;20489;-64
2023/08/19 05:40:35;;;;;;;5.88;2.90;;;24.20;99.90;;;;;;4162513;28;20060;-64
2023/08/19 05:42:36;;;;;;;3.50;2.53;;;24.20;99.90;;;;;;4160187;28;20482;-64
2023/08/19 05:44:36;;;;;;;4.93;2.72;;;24.20;99.90;;;;;;4161965;28;20037;-64
2023/08/19 05:46:37;;;;;;;6.60;2.60;;;24.20;99.90;;;;;;4154860;28;20030;-64
2023/08/19 05:48:38;;;;;;;3.92;2.50;;;24.30;99.90;;;;;;4160758;28;22938;-63
2023/08/19 05:50:38;;;;;;;5.88;2.55;;;24.30;99.90;;;;;;4156530;28;20041;-80
2023/08/19 05:52:39;;;;;;;6.38;2.58;;;24.30;99.90;;;;;;4160806;28;20040;-81
2023/08/19 05:54:40;;;;;;;5.07;2.60;;;24.30;99.90;;;;;;4159054;28;20040;-80
2023/08/19 05:56:41;;;;;;;5.37;2.80;;;24.30;99.90;;;;;;4161180;28;20474;-79
2023/08/19 05:58:42;;;;;;;6.80;3.00;;;24.30;99.90;;;;;;4161143;28;20042;-79
2023/08/19 06:00:42;;;;;;;4.32;2.30;;;24.30;99.90;;;;;;4160547;28;20037;-80
2023/08/19 06:02:43;;;;;;;4.43;2.55;;;24.40;99.90;;;;;;4156657;28;20038;-81
2023/08/19 06:04:44;;;;;;;5.47;2.83;;;24.40;99.90;;;;;;4161595;28;20025;-79
2023/08/19 06:06:44;;;;;;;5.63;2.85;;;24.50;99.90;;;;;;4161358;28;20035;-81
2023/08/19 06:08:45;;;;;;;7.03;2.97;;;24.50;99.90;;;;;;4159446;28;20034;-71
2023/08/19 06:10:45;;;;;;;4.90;2.67;;;24.50;99.90;;;;;;4159674;28;20376;-79
2023/08/19 06:12:46;;;;;;;5.47;2.50;;;24.50;99.90;;;;;;4161725;28;20040;-80
2023/08/19 06:14:47;;;;;;;3.58;2.58;;;24.50;99.90;;;;;;4161861;28;20037;-80
2023/08/19 06:16:47;;;;;;;7.13;2.42;;;24.50;99.90;;;;;;4160061;28;20030;-80
2023/08/19 06:18:48;;;;;;;4.78;2.50;;;24.50;99.90;;;;;;4158201;28;20111;-80
2023/08/19 06:20:50;;;;;;;5.57;2.58;;;24.50;99.90;;;;;;4158260;28;20040;-80
2023/08/19 06:22:50;;;;;;;4.43;2.53;;;24.50;99.90;;;;;;4158254;28;20037;-80
2023/08/19 06:24:51;;;;;;;5.50;3.15;;;24.60;99.90;;;;;;4156376;28;20091;-78
2023/08/19 06:26:52;;;;;;;3.80;2.28;;;24.60;99.90;;;;;;4172686;28;20515;-80
2023/08/19 06:28:52;;;;;;;9.95;2.67;;;24.60;99.90;;;;;;4160278;28;20041;-81
2023/08/19 06:30:53;;;;;;;5.53;3.00;;;24.60;99.90;;;;;;4157200;28;20037;-80
2023/08/19 06:32:54;;;;;;;4.28;2.40;;;24.60;99.90;;;;;;4160920;28;20061;-78
2023/08/19 06:34:55;;;;;;;4.10;2.78;;;24.60;99.90;;;;;;4158813;28;20071;-81
2023/08/19 06:36:59;;;;;;;6.43;2.90;;;24.60;99.90;;;;;;4158203;28;20033;-79
2023/08/19 06:39:26;;;;;;;6.03;3.22;;;24.60;99.90;;;;;;4159167;28;20598;-78
2023/08/19 06:41:28;;;;;;;4.80;3.15;;;24.60;99.90;;;;;;4158087;28;20029;-79
2023/08/19 06:43:30;;;;;;;5.68;3.10;;;24.60;99.90;;;;;;4159528;28;20116;-78
2023/08/19 06:45:33;;;;;;;5.78;3.15;;;24.60;99.90;;;;;;4143460;28;20037;-78
2023/08/19 06:47:37;;;;;;;5.57;2.83;;;24.70;99.90;;;;;;4160944;28;20040;-80
2023/08/19 06:49:38;;;;;;;4.40;2.80;;;24.70;99.90;;;;;;4158936;28;20546;-79
2023/08/19 06:51:39;;;;;;;5.03;3.05;;;24.60;99.90;;;;;;4156687;28;20025;-81
2023/08/19 06:53:40;;;;;;;3.55;2.67;;;24.70;99.90;;;;;;4161944;28;20037;-80
2023/08/19 06:55:45;;;;;;;5.00;2.63;;;24.70;99.90;;;;;;4158262;28;20430;-79
2023/08/19 06:58:16;;;;;;;5.72;2.80;;;24.70;99.90;;;;;;4164255;28;20117;-76
2023/08/19 07:00:18;;;;;;;3.83;2.78;;;24.70;99.90;;;;;;4157605;28;20389;-65
2023/08/19 07:02:20;;;;;;;7.35;3.05;;;24.70;99.90;;;;;;4155398;28;20037;-65
2023/08/19 07:04:22;;;;;;;6.55;3.08;;;24.70;99.90;;;;;;4154650;28;20042;-66
2023/08/19 07:06:27;;;;;;;5.40;2.63;;;24.70;99.90;;;;;;4158795;28;20030;-64
2023/08/19 07:08:30;;;;;;;6.30;2.63;;;24.70;99.90;;;;;;4160980;28;20116;-64
2023/08/19 07:10:31;;;;;;;4.57;2.70;;;24.70;99.90;;;;;;4191419;28;20120;-65
2023/08/19 07:12:32;;;;;;;5.40;3.00;;;24.80;99.90;;;;;;4156447;28;20040;-64
2023/08/19 07:14:34;;;;;;;4.00;2.42;;;24.80;99.90;;;;;;4158296;28;20030;-65
2023/08/19 07:16:35;;;;;;;8.93;3.08;;;24.70;99.90;;;;;;4161666;28;20057;-64
2023/08/19 07:18:39;;;;;;;4.88;2.97;;;24.80;99.90;;;;;;4174375;28;20048;-64
2023/08/19 07:20:40;;;;;;;4.40;2.80;;;24.80;99.90;;;;;;4162309;28;20045;-65
2023/08/19 07:22:47;;;;;;;9.05;2.92;;;24.80;99.90;;;;;;4163337;28;20146;-65
2023/08/19 07:24:51;;;;;;;5.72;2.80;;;24.80;99.90;;;;;;4161974;28;20026;-64
2023/08/19 07:26:52;;;;;;;6.80;2.92;;;24.80;99.90;;;;;;4160750;28;20080;-65
2023/08/19 07:28:53;;;;;;;3.60;2.70;;;24.80;99.90;;;;;;4161636;28;20041;-65
2023/08/19 07:30:53;;;;;;;5.82;2.92;;;24.80;99.90;;;;;;4160985;28;20562;-65
2023/08/19 07:32:54;;;;;;;4.05;2.70;;;24.90;99.90;;;;;;4164016;28;20026;-65
2023/08/19 07:34:55;;;;;;;4.50;2.40;;;24.90;99.90;;;;;;4163190;28;20044;-65
2023/08/19 07:36:56;;;;;;;5.40;2.65;;;24.90;99.90;;;;;;4165879;28;20543;-65
2023/08/19 07:38:56;;;;;;;4.78;2.60;;;24.90;99.90;;;;;;4164600;28;20033;-65
2023/08/19 07:40:57;;;;;;;5.85;3.05;;;25.00;99.90;;;;;;4167704;28;20119;-65
2023/08/19 07:42:58;;;;;;;8.55;2.85;;;25.00;99.90;;;;;;4177342;28;20037;-65
2023/08/19 07:44:58;;;;;;;4.68;2.60;;;25.00;99.90;;;;;;4163746;28;20033;-65
2023/08/19 07:46:59;;;;;;;5.43;2.60;;;25.10;99.90;;;;;;4162175;28;20488;-65
2023/08/19 07:48:59;;;;;;;2.72;2.13;;;25.20;99.90;;;;;;4162230;28;20090;-66
2023/08/19 07:51:00;;;;;;;4.30;2.30;;;25.30;99.90;;;;;;4167031;28;20041;-65
2023/08/19 07:53:00;;;;;;;6.25;2.58;;;25.40;99.90;;;;;;4163714;28;20072;-65
2023/08/19 07:55:01;;;;;;;12.75;2.95;;;25.40;99.90;;;;;;4159598;28;20037;-65
2023/08/19 07:57:02;;;;;;;3.80;2.53;;;25.40;99.90;;;;;;4160291;28;20037;-65
2023/08/19 07:59:03;;;;;;;5.60;2.83;;;25.50;99.90;;;;;;4152643;28;20402;-65
2023/08/19 08:01:05;;;;;;;6.55;2.45;;;25.60;99.90;;;;;;4174098;28;20048;-65
2023/08/19 08:03:06;;;;;;;3.17;2.45;;;25.60;99.90;;;;;;4163854;28;20049;-65
2023/08/19 08:05:07;;;;;;;4.32;2.65;;;25.70;99.90;;;;;;4158738;28;20041;-65
2023/08/19 08:07:07;;;;;;;6.18;2.65;;;25.70;99.90;;;;;;4162076;28;20028;-65
2023/08/19 08:09:08;;;;;;;5.43;2.35;;;25.70;99.90;;;;;;4160811;28;20121;-69
2023/08/19 08:11:09;;;;;;;5.78;2.53;;;25.70;99.90;;;;;;4160030;28;20033;-69
2023/08/19 08:13:09;;;;;;;5.40;2.70;;;25.80;99.90;;;;;;4162964;28;20037;-69
2023/08/19 08:15:10;;;;;;;5.13;2.60;;;25.80;99.90;;;;;;4162293;28;20045;-70
2023/08/19 08:17:10;;;;;;;8.50;2.60;;;25.80;99.90;;;;;;4177266;28;20432;-70
2023/08/19 08:19:11;;;;;;;3.05;2.30;;;25.90;99.90;;;;;;4162665;28;20121;-70
2023/08/19 08:21:12;;;;;;;5.50;2.65;;;25.90;99.90;;;;;;4160725;28;20096;-70
2023/08/19 08:23:13;;;;;;;4.00;2.35;;;25.90;99.90;;;;;;4161136;28;20037;-69
2023/08/19 08:25:13;;;;;;;5.55;2.55;;;25.90;99.90;;;;;;4162936;28;20033;-70
2023/08/19 08:27:14;;;;;;;5.93;2.70;;;26.00;99.90;;;;;;4162714;28;20033;-69
2023/08/19 08:29:15;;;;;;;3.78;2.47;;;26.00;99.90;;;;;;4163122;28;20033;-69
2023/08/19 08:31:16;;;;;;;4.43;3.03;;;26.10;99.90;;;;;;4162832;28;20504;-69
2023/08/19 08:33:18;;;;;;;6.38;2.58;;;26.20;99.90;;;;;;4162839;28;20030;-68
2023/08/19 08:35:18;;;;;;;3.85;2.47;;;26.30;99.90;;;;;;4162831;28;20479;-69
2023/08/19 08:37:19;;;;;;;5.95;2.38;;;26.40;99.90;;;;;;4167169;28;20025;-68
2023/08/19 08:39:20;;;;;;;6.05;3.00;;;26.50;99.90;;;;;;4146952;28;20025;-69
2023/08/19 08:41:22;;;;;;;3.35;2.28;;;26.60;99.90;;;;;;4162793;28;20669;-69
2023/08/19 08:43:23;;;;;;;2.85;2.30;;;26.70;99.90;;;;;;4161697;28;20040;-68
2023/08/19 08:45:26;;;;;;;3.67;2.80;;;26.80;99.90;;;;;;4159315;28;20041;-69
2023/08/19 08:47:27;;;;;;;8.25;2.72;;;26.90;99.90;;;;;;4161717;28;20374;-69
2023/08/19 08:49:28;;;;;;;5.10;2.92;;;26.90;99.90;;;;;;4163000;28;20021;-69
2023/08/19 08:51:29;;;;;;;3.35;2.67;;;27.00;99.90;;;;;;4152141;28;20084;-70
2023/08/19 08:53:30;;;;;;;4.10;2.40;;;27.10;99.90;;;;;;4155258;28;20871;-70
2023/08/19 08:55:31;;;;;;;5.60;2.63;;;27.20;99.90;;;;;;4161253;28;20034;-69
2023/08/19 08:57:32;;;;;;;3.97;2.13;;;27.30;99.90;;;;;;4165802;28;20041;-69
2023/08/19 08:59:32;;;;;;;5.50;2.92;;;27.30;99.90;;;;;;4170021;28;20029;-69
2023/08/19 09:01:34;;;;;;;5.03;2.17;;;27.40;99.90;;;;;;4164396;28;20370;-69
2023/08/19 09:03:39;;;;;;;5.30;2.45;;;27.50;99.90;;;;;;4176249;28;20049;-69
2023/08/19 09:05:41;;;;;;;6.03;2.60;;;27.50;99.90;;;;;;4191748;28;20043;-69
2023/08/19 09:07:42;;;;;;;6.40;2.55;;;27.60;99.90;;;;;;4162866;28;21034;-70
2023/08/19 09:09:46;;;;;;;4.32;2.85;;;27.60;99.90;;;;;;4161550;28;20029;-69
2023/08/19 09:11:51;;;;;;;9.68;3.38;;;27.70;99.90;;;;;;4163523;28;20059;-70
2023/08/19 09:14:00;;;;;;;3.85;2.70;;;27.70;99.90;;;;;;4159466;28;20057;-68
2023/08/19 09:16:01;;;;;;;2.90;2.42;;;27.80;99.90;;;;;;4162033;28;20401;-69
2023/08/19 09:18:02;;;;;;;4.30;2.53;;;27.80;99.90;;;;;;4165144;28;20044;-69
2023/08/19 09:20:03;;;;;;;3.72;2.75;;;27.90;99.90;;;;;;4166500;28;20029;-71
2023/08/19 09:22:10;;;;;;;4.30;2.80;;;28.00;99.90;;;;;;4162447;28;20029;-68
2023/08/19 09:24:20;;;;;;;5.30;2.55;;;28.10;99.90;;;;;;4161123;28;20041;-69
2023/08/19 09:26:21;;;;;;;5.82;3.38;;;28.20;99.90;;;;;;4162403;28;20433;-68
2023/08/19 09:28:22;;;;;;;6.82;2.83;;;28.30;99.90;;;;;;4167381;28;20026;-68
2023/08/19 09:30:30;;;;;;;4.15;2.78;;;28.40;99.90;;;;;;4162529;28;20382;-69
2023/08/19 09:32:36;;;;;;;3.65;2.38;;;28.50;99.90;;;;;;4162294;28;20044;-69
2023/08/19 09:34:36;;;;;;;4.25;2.97;;;28.50;99.90;;;;;;4161070;28;20041;-70
2023/08/19 09:36:40;;;;;;;4.30;2.88;;;28.60;99.90;;;;;;4158878;28;24895;-69
2023/08/19 09:38:41;;;;;;;4.30;2.63;;;28.60;99.90;;;;;;4165209;28;20045;-69
2023/08/19 09:40:42;;;;;;;4.07;2.88;;;28.60;99.90;;;;;;4153681;28;20049;-69
2023/08/19 09:42:47;;;;;;;4.68;3.15;;;28.60;99.90;;;;;;4161320;28;20021;-69
2023/08/19 09:44:48;;;;;;;4.57;3.00;;;28.60;99.90;;;;;;4161670;28;20037;-69
2023/08/19 09:46:48;;;;;;;6.93;2.97;;;28.70;99.90;;;;;;4161381;28;20033;-68
2023/08/19 09:48:57;;;;;;;4.43;2.95;;;28.70;99.90;;;;;;4162270;28;20040;-68
2023/08/19 09:50:58;;;;;;;6.30;3.00;;;28.70;99.90;;;;;;4162744;28;20037;-69
2023/08/19 09:53:00;;;;;;;4.65;2.90;;;28.70;99.90;;;;;;4161704;28;20489;-69
2023/08/19 09:55:01;;;;;;;5.83;3.00;;;28.70;99.90;;;;;;4166462;28;20463;-69
2023/08/19 09:57:01;;;;;;;5.72;3.28;;;28.70;99.90;;;;;;4170935;28;20269;-70
2023/08/19 09:59:03;;;;;;;4.20;2.88;;;28.70;99.90;;;;;;4159230;28;20051;-69
2023/08/19 10:01:03;;;;;;;7.47;3.10;;;28.70;99.90;;;;;;4161096;28;20036;-69
2023/08/19 10:03:05;;;;;;;4.43;3.00;;;28.60;99.90;;;;;;4186417;28;20033;-70
2023/08/19 10:05:06;;;;;;;4.53;2.70;;;28.60;99.90;;;;;;4165372;28;20444;-71
2023/08/19 10:07:09;;;;;;;5.18;2.72;;;28.60;99.90;;;;;;4162363;28;20029;-70
2023/08/19 10:09:11;;;;;;;3.60;3.20;;;28.60;99.90;;;;;;4158863;28;20108;-70
2023/08/19 10:11:14;;;;;;;7.50;3.25;;;28.50;99.90;;;;;;4158638;28;20048;-69
2023/08/19 10:13:17;;;;;;;6.18;3.00;;;28.50;99.90;;;;;;4161945;28;20473;-68
2023/08/19 10:15:20;;;;;;;5.35;3.13;;;28.50;99.90;;;;;;4156864;28;20398;-69
2023/08/19 10:17:22;;;;;;;4.35;3.15;;;28.50;99.90;;;;;;4163399;28;20527;-68
2023/08/19 10:19:24;;;;;;;3.90;2.67;;;28.60;99.90;;;;;;4161445;28;20029;-67
2023/08/19 10:21:27;;;;;;;;;;;28.60;99.90;;;;;;4157582;28;20080;-69
2023/08/19 10:23:29;;;;;;;6.07;3.10;;;28.60;99.90;;;;;;4161663;28;19996;-69
2023/08/19 10:25:30;;;;;;;5.45;3.10;;;28.60;99.90;;;;;;4160800;28;20041;-69
2023/08/19 10:27:31;;;;;;;5.72;3.50;;;28.60;99.90;;;;;;4161033;28;20048;-69
2023/08/19 10:29:31;;;;;;;5.63;3.10;;;28.60;99.90;;;;;;4161513;28;20029;-74
2023/08/19 10:31:33;;;;;;;8.15;3.33;;;28.70;99.90;;;;;;4160649;28;20036;-75
2023/08/19 10:33:45;;;;;;;6.28;3.75;;;28.70;99.90;;;;;;4160646;28;20029;-74
2023/08/19 10:36:00;;;;;;;10.60;4.28;;;28.70;99.90;;;;;;4160240;28;20033;-75